sensor_id;sensor_type;location;lat;lon;timestamp;P1;durP1;ratioP1;P2;durP2;ratioP2
54247;SDS011;40161;39.768;2.722;2023-05-07T00:02:20;4.90;;;1.50;;
54247;SDS011;40161;39.768;2.722;2023-05-07T00:04:46;3.20;;;1.48;;
54247;SDS011;40161;39.768;2.722;2023-05-07T00:07:12;2.72;;;1.40;;
54247;SDS011;40161;39.768;2.722;2023-05-07T00:09:37;3.65;;;1.50;;
54247;SDS011;40161;39.768;2.722;2023-05-07T00:12:03;4.10;;;1.48;;
54247;SDS011;40161;39.768;2.722;2023-05-07T00:14:28;3.42;;;1.50;;
54247;SDS011;40161;39.768;2.722;2023-05-07T00:16:54;3.92;;;1.85;;
54247;SDS011;40161;39.768;2.722;2023-05-07T00:19:20;3.80;;;1.58;;
54247;SDS011;40161;39.768;2.722;2023-05-07T00:21:46;3.83;;;1.50;;
54247;SDS011;40161;39.768;2.722;2023-05-07T00:24:11;3.72;;;1.15;;
54247;SDS011;40161;39.768;2.722;2023-05-07T00:26:37;2.30;;;0.98;;
54247;SDS011;40161;39.768;2.722;2023-05-07T00:29:02;3.75;;;1.40;;
54247;SDS011;40161;39.768;2.722;2023-05-07T00:31:28;2.35;;;1.08;;
54247;SDS011;40161;39.768;2.722;2023-05-07T00:33:53;2.33;;;1.20;;
54247;SDS011;40161;39.768;2.722;2023-05-07T00:36:19;2.35;;;1.27;;
54247;SDS011;40161;39.768;2.722;2023-05-07T00:38:45;2.38;;;1.10;;
54247;SDS011;40161;39.768;2.722;2023-05-07T00:41:10;2.95;;;1.25;;
54247;SDS011;40161;39.768;2.722;2023-05-07T00:43:36;4.25;;;1.20;;
54247;SDS011;40161;39.768;2.722;2023-05-07T00:46:01;2.13;;;1.10;;
54247;SDS011;40161;39.768;2.722;2023-05-07T00:48:27;3.90;;;1.40;;
54247;SDS011;40161;39.768;2.722;2023-05-07T00:50:52;3.00;;;1.30;;
54247;SDS011;40161;39.768;2.722;2023-05-07T00:53:18;3.05;;;1.40;;
54247;SDS011;40161;39.768;2.722;2023-05-07T00:55:44;3.15;;;1.30;;
54247;SDS011;40161;39.768;2.722;2023-05-07T00:58:10;3.78;;;1.40;;
54247;SDS011;40161;39.768;2.722;2023-05-07T01:00:35;3.42;;;1.38;;
54247;SDS011;40161;39.768;2.722;2023-05-07T01:03:01;2.25;;;1.30;;
54247;SDS011;40161;39.768;2.722;2023-05-07T01:05:27;3.35;;;1.50;;
54247;SDS011;40161;39.768;2.722;2023-05-07T01:07:53;3.05;;;1.60;;
54247;SDS011;40161;39.768;2.722;2023-05-07T01:10:20;4.22;;;1.45;;
54247;SDS011;40161;39.768;2.722;2023-05-07T01:12:47;3.40;;;1.52;;
54247;SDS011;40161;39.768;2.722;2023-05-07T01:15:15;3.67;;;1.30;;
54247;SDS011;40161;39.768;2.722;2023-05-07T01:17:41;4.72;;;1.77;;
54247;SDS011;40161;39.768;2.722;2023-05-07T01:20:08;4.13;;;1.42;;
54247;SDS011;40161;39.768;2.722;2023-05-07T01:22:39;3.58;;;1.40;;
54247;SDS011;40161;39.768;2.722;2023-05-07T01:25:05;3.58;;;1.60;;
54247;SDS011;40161;39.768;2.722;2023-05-07T01:27:35;3.50;;;1.50;;
54247;SDS011;40161;39.768;2.722;2023-05-07T01:30:04;3.03;;;1.30;;
54247;SDS011;40161;39.768;2.722;2023-05-07T01:32:35;2.08;;;1.13;;
54247;SDS011;40161;39.768;2.722;2023-05-07T01:35:13;3.50;;;1.67;;
54247;SDS011;40161;39.768;2.722;2023-05-07T01:37:44;3.10;;;1.60;;
54247;SDS011;40161;39.768;2.722;2023-05-07T01:40:11;5.18;;;1.60;;
54247;SDS011;40161;39.768;2.722;2023-05-07T01:42:37;4.80;;;1.42;;
54247;SDS011;40161;39.768;2.722;2023-05-07T01:45:03;4.68;;;1.50;;
54247;SDS011;40161;39.768;2.722;2023-05-07T01:47:30;2.55;;;1.38;;
54247;SDS011;40161;39.768;2.722;2023-05-07T01:49:56;3.55;;;1.50;;
54247;SDS011;40161;39.768;2.722;2023-05-07T01:52:22;3.80;;;1.50;;
54247;SDS011;40161;39.768;2.722;2023-05-07T01:54:48;3.55;;;1.40;;
54247;SDS011;40161;39.768;2.722;2023-05-07T01:57:13;3.85;;;1.55;;
54247;SDS011;40161;39.768;2.722;2023-05-07T01:59:39;3.33;;;1.27;;
54247;SDS011;40161;39.768;2.722;2023-05-07T02:02:04;3.15;;;1.30;;
54247;SDS011;40161;39.768;2.722;2023-05-07T02:04:30;5.68;;;1.63;;
54247;SDS011;40161;39.768;2.722;2023-05-07T02:06:55;3.33;;;1.75;;
54247;SDS011;40161;39.768;2.722;2023-05-07T02:09:21;3.72;;;1.70;;
54247;SDS011;40161;39.768;2.722;2023-05-07T02:11:47;4.22;;;1.60;;
54247;SDS011;40161;39.768;2.722;2023-05-07T02:14:12;5.03;;;1.70;;
54247;SDS011;40161;39.768;2.722;2023-05-07T02:16:38;4.82;;;1.63;;
54247;SDS011;40161;39.768;2.722;2023-05-07T02:19:03;3.55;;;1.70;;
54247;SDS011;40161;39.768;2.722;2023-05-07T02:21:29;4.13;;;1.50;;
54247;SDS011;40161;39.768;2.722;2023-05-07T02:23:54;5.18;;;1.52;;
54247;SDS011;40161;39.768;2.722;2023-05-07T02:26:20;3.88;;;1.50;;
54247;SDS011;40161;39.768;2.722;2023-05-07T02:28:46;2.78;;;1.52;;
54247;SDS011;40161;39.768;2.722;2023-05-07T02:31:12;3.83;;;1.67;;
54247;SDS011;40161;39.768;2.722;2023-05-07T02:33:37;2.70;;;1.33;;
54247;SDS011;40161;39.768;2.722;2023-05-07T02:36:07;2.42;;;1.30;;
54247;SDS011;40161;39.768;2.722;2023-05-07T02:38:33;2.72;;;1.50;;
54247;SDS011;40161;39.768;2.722;2023-05-07T02:40:59;3.67;;;1.60;;
54247;SDS011;40161;39.768;2.722;2023-05-07T02:43:24;3.58;;;1.55;;
54247;SDS011;40161;39.768;2.722;2023-05-07T02:45:59;3.05;;;1.52;;
54247;SDS011;40161;39.768;2.722;2023-05-07T02:48:31;4.55;;;1.70;;
54247;SDS011;40161;39.768;2.722;2023-05-07T02:50:58;4.63;;;1.48;;
54247;SDS011;40161;39.768;2.722;2023-05-07T02:53:24;4.60;;;1.58;;
54247;SDS011;40161;39.768;2.722;2023-05-07T02:55:55;3.70;;;1.70;;
54247;SDS011;40161;39.768;2.722;2023-05-07T02:58:24;2.95;;;1.38;;
54247;SDS011;40161;39.768;2.722;2023-05-07T03:00:50;3.42;;;1.55;;
54247;SDS011;40161;39.768;2.722;2023-05-07T03:03:16;3.20;;;1.70;;
54247;SDS011;40161;39.768;2.722;2023-05-07T03:05:42;4.05;;;1.73;;
54247;SDS011;40161;39.768;2.722;2023-05-07T03:08:08;4.35;;;1.70;;
54247;SDS011;40161;39.768;2.722;2023-05-07T03:10:35;5.03;;;1.80;;
54247;SDS011;40161;39.768;2.722;2023-05-07T03:13:01;6.60;;;1.92;;
54247;SDS011;40161;39.768;2.722;2023-05-07T03:15:26;3.25;;;1.58;;
54247;SDS011;40161;39.768;2.722;2023-05-07T03:17:52;4.53;;;1.60;;
54247;SDS011;40161;39.768;2.722;2023-05-07T03:20:17;3.40;;;1.60;;
54247;SDS011;40161;39.768;2.722;2023-05-07T03:22:43;5.43;;;1.80;;
54247;SDS011;40161;39.768;2.722;2023-05-07T03:25:09;4.10;;;1.60;;
54247;SDS011;40161;39.768;2.722;2023-05-07T03:27:35;3.15;;;1.85;;
54247;SDS011;40161;39.768;2.722;2023-05-07T03:30:00;5.13;;;1.70;;
54247;SDS011;40161;39.768;2.722;2023-05-07T03:32:26;5.28;;;1.70;;
54247;SDS011;40161;39.768;2.722;2023-05-07T03:34:52;3.63;;;1.65;;
54247;SDS011;40161;39.768;2.722;2023-05-07T03:37:17;3.22;;;1.50;;
54247;SDS011;40161;39.768;2.722;2023-05-07T03:39:43;2.88;;;1.50;;
54247;SDS011;40161;39.768;2.722;2023-05-07T03:42:09;3.15;;;1.50;;
54247;SDS011;40161;39.768;2.722;2023-05-07T03:44:34;3.50;;;1.65;;
54247;SDS011;40161;39.768;2.722;2023-05-07T03:47:01;3.42;;;1.58;;
54247;SDS011;40161;39.768;2.722;2023-05-07T03:49:27;4.43;;;1.80;;
54247;SDS011;40161;39.768;2.722;2023-05-07T03:51:53;4.55;;;1.70;;
54247;SDS011;40161;39.768;2.722;2023-05-07T03:54:18;3.42;;;1.50;;
54247;SDS011;40161;39.768;2.722;2023-05-07T03:56:44;3.35;;;1.40;;
54247;SDS011;40161;39.768;2.722;2023-05-07T03:59:09;4.13;;;1.52;;
54247;SDS011;40161;39.768;2.722;2023-05-07T04:01:35;3.72;;;1.50;;
54247;SDS011;40161;39.768;2.722;2023-05-07T04:04:00;3.10;;;1.63;;
54247;SDS011;40161;39.768;2.722;2023-05-07T04:06:26;4.25;;;1.50;;
54247;SDS011;40161;39.768;2.722;2023-05-07T04:08:52;3.55;;;1.48;;
54247;SDS011;40161;39.768;2.722;2023-05-07T04:11:18;4.75;;;1.60;;
54247;SDS011;40161;39.768;2.722;2023-05-07T04:13:43;3.17;;;1.50;;
54247;SDS011;40161;39.768;2.722;2023-05-07T04:16:09;3.03;;;1.60;;
54247;SDS011;40161;39.768;2.722;2023-05-07T04:18:34;3.75;;;1.80;;
54247;SDS011;40161;39.768;2.722;2023-05-07T04:21:00;2.65;;;1.60;;
54247;SDS011;40161;39.768;2.722;2023-05-07T04:23:25;2.75;;;1.50;;
54247;SDS011;40161;39.768;2.722;2023-05-07T04:25:51;4.65;;;1.75;;
54247;SDS011;40161;39.768;2.722;2023-05-07T04:28:16;3.75;;;1.50;;
54247;SDS011;40161;39.768;2.722;2023-05-07T04:30:42;3.58;;;2.00;;
54247;SDS011;40161;39.768;2.722;2023-05-07T04:33:08;4.63;;;1.70;;
54247;SDS011;40161;39.768;2.722;2023-05-07T04:35:34;4.35;;;1.80;;
54247;SDS011;40161;39.768;2.722;2023-05-07T04:38:00;5.10;;;1.70;;
54247;SDS011;40161;39.768;2.722;2023-05-07T04:40:27;4.40;;;1.90;;
54247;SDS011;40161;39.768;2.722;2023-05-07T04:42:52;3.90;;;1.80;;
54247;SDS011;40161;39.768;2.722;2023-05-07T04:45:18;2.55;;;1.40;;
54247;SDS011;40161;39.768;2.722;2023-05-07T04:47:44;4.07;;;1.70;;
54247;SDS011;40161;39.768;2.722;2023-05-07T04:50:09;3.08;;;1.63;;
54247;SDS011;40161;39.768;2.722;2023-05-07T04:52:35;2.90;;;1.60;;
54247;SDS011;40161;39.768;2.722;2023-05-07T04:55:01;4.22;;;1.67;;
54247;SDS011;40161;39.768;2.722;2023-05-07T04:57:27;3.78;;;1.55;;
54247;SDS011;40161;39.768;2.722;2023-05-07T04:59:53;4.03;;;1.60;;
54247;SDS011;40161;39.768;2.722;2023-05-07T05:02:19;3.00;;;1.60;;
54247;SDS011;40161;39.768;2.722;2023-05-07T05:04:44;2.50;;;1.40;;
54247;SDS011;40161;39.768;2.722;2023-05-07T05:07:10;3.83;;;1.65;;
54247;SDS011;40161;39.768;2.722;2023-05-07T05:09:36;4.50;;;1.70;;
54247;SDS011;40161;39.768;2.722;2023-05-07T05:12:02;3.63;;;1.35;;
54247;SDS011;40161;39.768;2.722;2023-05-07T05:14:27;4.38;;;1.77;;
54247;SDS011;40161;39.768;2.722;2023-05-07T05:16:53;4.40;;;1.90;;
54247;SDS011;40161;39.768;2.722;2023-05-07T05:19:18;5.28;;;1.90;;
54247;SDS011;40161;39.768;2.722;2023-05-07T05:21:44;4.60;;;1.60;;
54247;SDS011;40161;39.768;2.722;2023-05-07T05:24:09;4.45;;;1.75;;
54247;SDS011;40161;39.768;2.722;2023-05-07T05:26:35;3.75;;;1.60;;
54247;SDS011;40161;39.768;2.722;2023-05-07T05:29:00;3.60;;;1.67;;
54247;SDS011;40161;39.768;2.722;2023-05-07T05:31:26;3.22;;;1.50;;
54247;SDS011;40161;39.768;2.722;2023-05-07T05:33:51;4.07;;;1.63;;
54247;SDS011;40161;39.768;2.722;2023-05-07T05:36:17;4.50;;;1.60;;
54247;SDS011;40161;39.768;2.722;2023-05-07T05:38:43;3.90;;;2.00;;
54247;SDS011;40161;39.768;2.722;2023-05-07T05:41:09;3.92;;;1.70;;
54247;SDS011;40161;39.768;2.722;2023-05-07T05:43:35;4.10;;;1.83;;
54247;SDS011;40161;39.768;2.722;2023-05-07T05:46:01;3.33;;;1.63;;
54247;SDS011;40161;39.768;2.722;2023-05-07T05:48:27;3.03;;;1.60;;
54247;SDS011;40161;39.768;2.722;2023-05-07T05:50:53;3.80;;;1.55;;
54247;SDS011;40161;39.768;2.722;2023-05-07T05:53:19;3.15;;;1.55;;
54247;SDS011;40161;39.768;2.722;2023-05-07T05:55:44;3.05;;;1.50;;
54247;SDS011;40161;39.768;2.722;2023-05-07T05:58:10;3.28;;;1.65;;
54247;SDS011;40161;39.768;2.722;2023-05-07T06:00:36;5.18;;;1.90;;
54247;SDS011;40161;39.768;2.722;2023-05-07T06:03:01;4.65;;;2.10;;
54247;SDS011;40161;39.768;2.722;2023-05-07T06:05:27;3.50;;;1.65;;
54247;SDS011;40161;39.768;2.722;2023-05-07T06:07:52;6.80;;;2.20;;
54247;SDS011;40161;39.768;2.722;2023-05-07T06:10:18;3.78;;;2.03;;
54247;SDS011;40161;39.768;2.722;2023-05-07T06:12:44;4.15;;;2.05;;
54247;SDS011;40161;39.768;2.722;2023-05-07T06:15:10;4.45;;;2.38;;
54247;SDS011;40161;39.768;2.722;2023-05-07T06:17:35;4.53;;;2.50;;
54247;SDS011;40161;39.768;2.722;2023-05-07T06:20:01;4.82;;;2.10;;
54247;SDS011;40161;39.768;2.722;2023-05-07T06:22:27;4.60;;;2.33;;
54247;SDS011;40161;39.768;2.722;2023-05-07T06:24:52;5.63;;;2.15;;
54247;SDS011;40161;39.768;2.722;2023-05-07T06:27:18;4.82;;;2.13;;
54247;SDS011;40161;39.768;2.722;2023-05-07T06:29:43;4.97;;;2.03;;
54247;SDS011;40161;39.768;2.722;2023-05-07T06:32:09;5.03;;;2.28;;
54247;SDS011;40161;39.768;2.722;2023-05-07T06:34:36;5.28;;;1.80;;
54247;SDS011;40161;39.768;2.722;2023-05-07T06:37:02;5.05;;;1.88;;
54247;SDS011;40161;39.768;2.722;2023-05-07T06:39:29;3.10;;;1.70;;
54247;SDS011;40161;39.768;2.722;2023-05-07T06:41:55;3.08;;;1.77;;
54247;SDS011;40161;39.768;2.722;2023-05-07T06:44:20;2.92;;;1.67;;
54247;SDS011;40161;39.768;2.722;2023-05-07T06:46:46;4.53;;;1.88;;
54247;SDS011;40161;39.768;2.722;2023-05-07T06:49:14;4.03;;;1.95;;
54247;SDS011;40161;39.768;2.722;2023-05-07T06:51:40;3.92;;;1.92;;
54247;SDS011;40161;39.768;2.722;2023-05-07T06:54:06;4.10;;;1.70;;
54247;SDS011;40161;39.768;2.722;2023-05-07T06:56:32;3.20;;;1.60;;
54247;SDS011;40161;39.768;2.722;2023-05-07T06:58:59;3.30;;;1.63;;
54247;SDS011;40161;39.768;2.722;2023-05-07T07:01:25;6.07;;;1.60;;
54247;SDS011;40161;39.768;2.722;2023-05-07T07:03:51;4.55;;;1.60;;
54247;SDS011;40161;39.768;2.722;2023-05-07T07:06:17;4.07;;;1.60;;
54247;SDS011;40161;39.768;2.722;2023-05-07T07:08:42;4.57;;;1.80;;
54247;SDS011;40161;39.768;2.722;2023-05-07T07:11:08;4.22;;;2.08;;
54247;SDS011;40161;39.768;2.722;2023-05-07T07:13:35;2.83;;;1.38;;
54247;SDS011;40161;39.768;2.722;2023-05-07T07:16:00;4.68;;;1.95;;
54247;SDS011;40161;39.768;2.722;2023-05-07T07:18:26;3.50;;;1.83;;
54247;SDS011;40161;39.768;2.722;2023-05-07T07:20:52;4.78;;;2.10;;
54247;SDS011;40161;39.768;2.722;2023-05-07T07:23:17;4.18;;;2.35;;
54247;SDS011;40161;39.768;2.722;2023-05-07T07:25:43;4.70;;;2.30;;
54247;SDS011;40161;39.768;2.722;2023-05-07T07:28:09;3.42;;;1.83;;
54247;SDS011;40161;39.768;2.722;2023-05-07T07:30:35;3.83;;;1.67;;
54247;SDS011;40161;39.768;2.722;2023-05-07T07:33:02;3.38;;;1.50;;
54247;SDS011;40161;39.768;2.722;2023-05-07T07:35:31;2.30;;;1.33;;
54247;SDS011;40161;39.768;2.722;2023-05-07T07:37:57;3.25;;;1.60;;
54247;SDS011;40161;39.768;2.722;2023-05-07T07:40:23;3.72;;;1.63;;
54247;SDS011;40161;39.768;2.722;2023-05-07T07:42:50;2.25;;;1.27;;
54247;SDS011;40161;39.768;2.722;2023-05-07T07:45:16;2.45;;;0.95;;
54247;SDS011;40161;39.768;2.722;2023-05-07T07:47:41;2.20;;;1.05;;
54247;SDS011;40161;39.768;2.722;2023-05-07T07:50:07;2.88;;;1.20;;
54247;SDS011;40161;39.768;2.722;2023-05-07T07:52:33;5.25;;;1.40;;
54247;SDS011;40161;39.768;2.722;2023-05-07T07:54:59;3.33;;;1.45;;
54247;SDS011;40161;39.768;2.722;2023-05-07T07:57:25;3.42;;;1.50;;
54247;SDS011;40161;39.768;2.722;2023-05-07T07:59:50;3.47;;;1.50;;
54247;SDS011;40161;39.768;2.722;2023-05-07T08:02:16;3.30;;;1.70;;
54247;SDS011;40161;39.768;2.722;2023-05-07T08:04:42;3.80;;;1.50;;
54247;SDS011;40161;39.768;2.722;2023-05-07T08:07:11;3.13;;;1.20;;
54247;SDS011;40161;39.768;2.722;2023-05-07T08:09:37;3.08;;;1.52;;
54247;SDS011;40161;39.768;2.722;2023-05-07T08:12:04;2.67;;;1.30;;
54247;SDS011;40161;39.768;2.722;2023-05-07T08:14:30;2.58;;;1.15;;
54247;SDS011;40161;39.768;2.722;2023-05-07T08:16:55;3.03;;;1.50;;
54247;SDS011;40161;39.768;2.722;2023-05-07T08:19:21;2.38;;;1.20;;
54247;SDS011;40161;39.768;2.722;2023-05-07T08:21:47;3.03;;;1.40;;
54247;SDS011;40161;39.768;2.722;2023-05-07T08:24:16;4.60;;;1.80;;
54247;SDS011;40161;39.768;2.722;2023-05-07T08:26:42;9.07;;;4.53;;
54247;SDS011;40161;39.768;2.722;2023-05-07T08:29:09;10.93;;;5.35;;
54247;SDS011;40161;39.768;2.722;2023-05-07T08:31:35;6.97;;;3.40;;
54247;SDS011;40161;39.768;2.722;2023-05-07T08:34:00;6.43;;;2.70;;
54247;SDS011;40161;39.768;2.722;2023-05-07T08:36:26;6.75;;;3.20;;
54247;SDS011;40161;39.768;2.722;2023-05-07T08:38:52;7.15;;;2.80;;
54247;SDS011;40161;39.768;2.722;2023-05-07T08:41:18;6.07;;;2.75;;
54247;SDS011;40161;39.768;2.722;2023-05-07T08:43:47;4.97;;;2.42;;
54247;SDS011;40161;39.768;2.722;2023-05-07T08:46:18;6.82;;;4.00;;
54247;SDS011;40161;39.768;2.722;2023-05-07T08:48:47;5.25;;;2.50;;
54247;SDS011;40161;39.768;2.722;2023-05-07T08:51:15;4.97;;;2.08;;
54247;SDS011;40161;39.768;2.722;2023-05-07T08:53:42;3.63;;;1.50;;
54247;SDS011;40161;39.768;2.722;2023-05-07T08:56:09;6.22;;;1.73;;
54247;SDS011;40161;39.768;2.722;2023-05-07T08:58:35;2.75;;;1.30;;
54247;SDS011;40161;39.768;2.722;2023-05-07T09:01:02;3.25;;;1.90;;
54247;SDS011;40161;39.768;2.722;2023-05-07T09:03:32;2.05;;;1.20;;
54247;SDS011;40161;39.768;2.722;2023-05-07T09:05:58;2.53;;;1.10;;
54247;SDS011;40161;39.768;2.722;2023-05-07T09:08:27;1.98;;;1.02;;
54247;SDS011;40161;39.768;2.722;2023-05-07T09:10:53;3.78;;;1.30;;
54247;SDS011;40161;39.768;2.722;2023-05-07T09:13:19;2.83;;;1.10;;
54247;SDS011;40161;39.768;2.722;2023-05-07T09:15:45;2.35;;;1.30;;
54247;SDS011;40161;39.768;2.722;2023-05-07T09:18:10;2.17;;;1.13;;
54247;SDS011;40161;39.768;2.722;2023-05-07T09:20:37;4.13;;;1.50;;
54247;SDS011;40161;39.768;2.722;2023-05-07T09:23:03;3.45;;;1.30;;
54247;SDS011;40161;39.768;2.722;2023-05-07T09:25:29;6.20;;;1.20;;
54247;SDS011;40161;39.768;2.722;2023-05-07T09:27:56;5.35;;;1.35;;
54247;SDS011;40161;39.768;2.722;2023-05-07T09:30:21;4.00;;;1.58;;
54247;SDS011;40161;39.768;2.722;2023-05-07T09:32:47;3.60;;;1.35;;
54247;SDS011;40161;39.768;2.722;2023-05-07T09:35:16;6.80;;;1.85;;
54247;SDS011;40161;39.768;2.722;2023-05-07T09:37:42;3.72;;;1.58;;
54247;SDS011;40161;39.768;2.722;2023-05-07T09:40:11;3.15;;;1.40;;
54247;SDS011;40161;39.768;2.722;2023-05-07T09:42:46;2.55;;;1.20;;
54247;SDS011;40161;39.768;2.722;2023-05-07T09:45:12;2.83;;;1.20;;
54247;SDS011;40161;39.768;2.722;2023-05-07T09:47:38;4.25;;;1.13;;
54247;SDS011;40161;39.768;2.722;2023-05-07T09:50:09;5.07;;;1.50;;
54247;SDS011;40161;39.768;2.722;2023-05-07T09:52:36;4.18;;;1.60;;
54247;SDS011;40161;39.768;2.722;2023-05-07T09:55:06;3.67;;;1.45;;
54247;SDS011;40161;39.768;2.722;2023-05-07T09:57:33;5.50;;;1.70;;
54247;SDS011;40161;39.768;2.722;2023-05-07T09:59:59;4.60;;;1.30;;
54247;SDS011;40161;39.768;2.722;2023-05-07T10:02:29;4.28;;;1.38;;
54247;SDS011;40161;39.768;2.722;2023-05-07T10:04:55;3.47;;;1.30;;
54247;SDS011;40161;39.768;2.722;2023-05-07T10:07:23;4.15;;;1.50;;
54247;SDS011;40161;39.768;2.722;2023-05-07T10:09:50;3.78;;;1.60;;
54247;SDS011;40161;39.768;2.722;2023-05-07T10:12:16;4.97;;;1.70;;
54247;SDS011;40161;39.768;2.722;2023-05-07T10:14:43;5.32;;;1.83;;
54247;SDS011;40161;39.768;2.722;2023-05-07T10:17:10;4.55;;;1.60;;
54247;SDS011;40161;39.768;2.722;2023-05-07T10:19:37;6.95;;;1.75;;
54247;SDS011;40161;39.768;2.722;2023-05-07T10:22:05;4.57;;;1.60;;
54247;SDS011;40161;39.768;2.722;2023-05-07T10:24:35;6.32;;;1.92;;
54247;SDS011;40161;39.768;2.722;2023-05-07T10:27:04;3.80;;;1.30;;
54247;SDS011;40161;39.768;2.722;2023-05-07T10:29:39;4.95;;;1.67;;
54247;SDS011;40161;39.768;2.722;2023-05-07T10:32:37;6.78;;;1.90;;
54247;SDS011;40161;39.768;2.722;2023-05-07T10:35:06;4.57;;;2.05;;
54247;SDS011;40161;39.768;2.722;2023-05-07T10:40:02;6.25;;;1.70;;
54247;SDS011;40161;39.768;2.722;2023-05-07T10:42:28;4.68;;;1.45;;
54247;SDS011;40161;39.768;2.722;2023-05-07T10:44:54;3.30;;;1.60;;
54247;SDS011;40161;39.768;2.722;2023-05-07T10:47:19;6.70;;;1.65;;
54247;SDS011;40161;39.768;2.722;2023-05-07T10:52:14;4.00;;;1.60;;
54247;SDS011;40161;39.768;2.722;2023-05-07T10:54:40;5.95;;;2.28;;
54247;SDS011;40161;39.768;2.722;2023-05-07T10:57:40;6.93;;;2.10;;
54247;SDS011;40161;39.768;2.722;2023-05-07T11:00:47;4.20;;;1.85;;
54247;SDS011;40161;39.768;2.722;2023-05-07T11:05:29;4.18;;;1.60;;
54247;SDS011;40161;39.768;2.722;2023-05-07T11:07:57;5.27;;;1.50;;
54247;SDS011;40161;39.768;2.722;2023-05-07T11:13:13;6.15;;;2.45;;
54247;SDS011;40161;39.768;2.722;2023-05-07T11:15:46;4.72;;;1.60;;
54247;SDS011;40161;39.768;2.722;2023-05-07T11:18:13;5.07;;;1.60;;
54247;SDS011;40161;39.768;2.722;2023-05-07T11:20:44;5.35;;;1.50;;
54247;SDS011;40161;39.768;2.722;2023-05-07T11:26:03;3.97;;;1.73;;
54247;SDS011;40161;39.768;2.722;2023-05-07T11:28:31;4.20;;;1.48;;
54247;SDS011;40161;39.768;2.722;2023-05-07T11:31:01;4.80;;;1.50;;
54247;SDS011;40161;39.768;2.722;2023-05-07T11:33:27;3.75;;;1.40;;
54247;SDS011;40161;39.768;2.722;2023-05-07T11:35:54;3.92;;;1.65;;
54247;SDS011;40161;39.768;2.722;2023-05-07T11:38:20;5.75;;;1.95;;
54247;SDS011;40161;39.768;2.722;2023-05-07T11:40:49;3.40;;;1.42;;
54247;SDS011;40161;39.768;2.722;2023-05-07T11:43:18;4.00;;;1.48;;
54247;SDS011;40161;39.768;2.722;2023-05-07T11:45:44;3.83;;;1.50;;
54247;SDS011;40161;39.768;2.722;2023-05-07T11:48:12;3.67;;;1.30;;
54247;SDS011;40161;39.768;2.722;2023-05-07T11:53:37;4.07;;;1.35;;
54247;SDS011;40161;39.768;2.722;2023-05-07T11:56:10;4.50;;;1.80;;
54247;SDS011;40161;39.768;2.722;2023-05-07T11:58:37;2.97;;;1.30;;
54247;SDS011;40161;39.768;2.722;2023-05-07T12:01:04;7.70;;;1.60;;
54247;SDS011;40161;39.768;2.722;2023-05-07T12:03:32;5.15;;;1.40;;
54247;SDS011;40161;39.768;2.722;2023-05-07T12:05:59;4.20;;;1.40;;
54247;SDS011;40161;39.768;2.722;2023-05-07T12:08:25;5.22;;;1.75;;
54247;SDS011;40161;39.768;2.722;2023-05-07T12:10:50;4.53;;;1.58;;
54247;SDS011;40161;39.768;2.722;2023-05-07T12:13:17;3.60;;;1.40;;
54247;SDS011;40161;39.768;2.722;2023-05-07T12:15:43;3.92;;;1.50;;
54247;SDS011;40161;39.768;2.722;2023-05-07T12:18:09;5.57;;;1.60;;
54247;SDS011;40161;39.768;2.722;2023-05-07T12:20:36;3.97;;;1.50;;
54247;SDS011;40161;39.768;2.722;2023-05-07T12:23:02;3.40;;;1.15;;
54247;SDS011;40161;39.768;2.722;2023-05-07T12:25:35;4.18;;;1.23;;
54247;SDS011;40161;39.768;2.722;2023-05-07T12:28:01;3.63;;;1.30;;
54247;SDS011;40161;39.768;2.722;2023-05-07T12:30:29;5.45;;;1.40;;
54247;SDS011;40161;39.768;2.722;2023-05-07T12:33:04;3.85;;;1.27;;
54247;SDS011;40161;39.768;2.722;2023-05-07T12:35:31;3.58;;;1.58;;
54247;SDS011;40161;39.768;2.722;2023-05-07T12:37:58;4.47;;;1.55;;
54247;SDS011;40161;39.768;2.722;2023-05-07T12:40:35;2.58;;;1.40;;
54247;SDS011;40161;39.768;2.722;2023-05-07T12:43:03;3.75;;;1.55;;
54247;SDS011;40161;39.768;2.722;2023-05-07T12:45:29;4.07;;;1.20;;
54247;SDS011;40161;39.768;2.722;2023-05-07T12:47:54;3.95;;;1.23;;
54247;SDS011;40161;39.768;2.722;2023-05-07T12:50:20;2.75;;;1.08;;
54247;SDS011;40161;39.768;2.722;2023-05-07T12:52:48;3.50;;;1.40;;
54247;SDS011;40161;39.768;2.722;2023-05-07T12:55:14;4.03;;;1.70;;
54247;SDS011;40161;39.768;2.722;2023-05-07T12:57:45;3.78;;;1.20;;
54247;SDS011;40161;39.768;2.722;2023-05-07T13:00:13;3.05;;;1.30;;
54247;SDS011;40161;39.768;2.722;2023-05-07T13:02:40;4.32;;;1.50;;
54247;SDS011;40161;39.768;2.722;2023-05-07T13:05:07;3.95;;;1.58;;
54247;SDS011;40161;39.768;2.722;2023-05-07T13:07:33;4.03;;;1.40;;
54247;SDS011;40161;39.768;2.722;2023-05-07T13:09:59;5.57;;;1.50;;
54247;SDS011;40161;39.768;2.722;2023-05-07T13:12:24;3.20;;;1.40;;
54247;SDS011;40161;39.768;2.722;2023-05-07T13:14:50;3.00;;;1.33;;
54247;SDS011;40161;39.768;2.722;2023-05-07T13:17:15;5.38;;;1.75;;
54247;SDS011;40161;39.768;2.722;2023-05-07T13:19:41;4.13;;;1.45;;
54247;SDS011;40161;39.768;2.722;2023-05-07T13:22:06;4.85;;;1.90;;
54247;SDS011;40161;39.768;2.722;2023-05-07T13:24:32;4.35;;;1.48;;
54247;SDS011;40161;39.768;2.722;2023-05-07T13:26:57;4.40;;;1.70;;
54247;SDS011;40161;39.768;2.722;2023-05-07T13:29:23;4.38;;;1.60;;
54247;SDS011;40161;39.768;2.722;2023-05-07T13:31:53;3.88;;;1.60;;
54247;SDS011;40161;39.768;2.722;2023-05-07T13:34:19;5.30;;;2.20;;
54247;SDS011;40161;39.768;2.722;2023-05-07T13:36:45;5.28;;;1.92;;
54247;SDS011;40161;39.768;2.722;2023-05-07T13:39:11;4.82;;;1.40;;
54247;SDS011;40161;39.768;2.722;2023-05-07T13:41:36;6.05;;;1.80;;
54247;SDS011;40161;39.768;2.722;2023-05-07T13:44:02;5.10;;;2.20;;
54247;SDS011;40161;39.768;2.722;2023-05-07T13:46:27;4.20;;;1.55;;
54247;SDS011;40161;39.768;2.722;2023-05-07T13:48:54;4.07;;;1.58;;
54247;SDS011;40161;39.768;2.722;2023-05-07T13:51:20;3.80;;;1.45;;
54247;SDS011;40161;39.768;2.722;2023-05-07T13:53:46;3.25;;;1.50;;
54247;SDS011;40161;39.768;2.722;2023-05-07T13:56:12;5.47;;;1.92;;
54247;SDS011;40161;39.768;2.722;2023-05-07T13:58:39;3.83;;;1.45;;
54247;SDS011;40161;39.768;2.722;2023-05-07T14:01:04;2.80;;;1.30;;
54247;SDS011;40161;39.768;2.722;2023-05-07T14:03:30;3.78;;;1.60;;
54247;SDS011;40161;39.768;2.722;2023-05-07T14:05:57;3.72;;;1.48;;
54247;SDS011;40161;39.768;2.722;2023-05-07T14:08:25;5.80;;;1.55;;
54247;SDS011;40161;39.768;2.722;2023-05-07T14:10:50;3.72;;;1.40;;
54247;SDS011;40161;39.768;2.722;2023-05-07T14:13:16;3.58;;;1.70;;
54247;SDS011;40161;39.768;2.722;2023-05-07T14:15:42;3.88;;;1.65;;
54247;SDS011;40161;39.768;2.722;2023-05-07T14:18:11;3.85;;;1.38;;
54247;SDS011;40161;39.768;2.722;2023-05-07T14:20:37;3.47;;;1.60;;
54247;SDS011;40161;39.768;2.722;2023-05-07T14:23:03;4.07;;;1.75;;
54247;SDS011;40161;39.768;2.722;2023-05-07T14:25:29;3.33;;;1.30;;
54247;SDS011;40161;39.768;2.722;2023-05-07T14:27:54;5.20;;;1.67;;
54247;SDS011;40161;39.768;2.722;2023-05-07T14:30:20;4.93;;;1.60;;
54247;SDS011;40161;39.768;2.722;2023-05-07T14:32:49;3.78;;;1.10;;
54247;SDS011;40161;39.768;2.722;2023-05-07T14:35:15;3.22;;;1.30;;
54247;SDS011;40161;39.768;2.722;2023-05-07T14:37:41;3.33;;;1.50;;
54247;SDS011;40161;39.768;2.722;2023-05-07T14:40:07;2.63;;;1.23;;
54247;SDS011;40161;39.768;2.722;2023-05-07T14:42:33;4.63;;;1.70;;
54247;SDS011;40161;39.768;2.722;2023-05-07T14:44:58;2.53;;;1.33;;
54247;SDS011;40161;39.768;2.722;2023-05-07T14:47:24;5.20;;;1.60;;
54247;SDS011;40161;39.768;2.722;2023-05-07T14:49:49;3.80;;;1.60;;
54247;SDS011;40161;39.768;2.722;2023-05-07T14:52:15;3.63;;;1.50;;
54247;SDS011;40161;39.768;2.722;2023-05-07T14:54:40;4.68;;;1.52;;
54247;SDS011;40161;39.768;2.722;2023-05-07T14:57:08;5.57;;;1.80;;
54247;SDS011;40161;39.768;2.722;2023-05-07T14:59:35;4.15;;;1.50;;
54247;SDS011;40161;39.768;2.722;2023-05-07T15:02:00;5.70;;;1.63;;